Time;durP1;ratioP1;P1;durP2;ratioP2;P2;SDS_P1;SDS_P2;PMS_P1;PMS_P2;Temp;Humidity;BMP_temperature;BMP_pressure;BME280_temperature;BME280_humidity;BME280_pressure;Samples;Min_cycle;Max_cycle;Signal;HPM_P1;HPM_P2
2022/10/05 00:00:52;;;;;;;2.75;1.60;;;;;;;;;;4973295;28;20034;-85
2022/10/05 00:03:19;;;;;;;4.05;1.73;;;;;;;;;;4975171;28;20034;-85
2022/10/05 00:05:45;;;;;;;2.67;1.90;;;;;;;;;;4973399;28;20034;-84
2022/10/05 00:08:18;;;;;;;5.05;1.70;;;;;;;;;;4974866;28;20027;-85
2022/10/05 00:10:44;;;;;;;4.45;1.40;;;;;;;;;;4974414;28;20039;-85
2022/10/05 00:13:30;;;;;;;1.98;1.42;;;;;;;;;;4974446;28;20476;-85
2022/10/05 00:16:16;;;;;;;1.77;1.35;;;;;;;;;;4976060;28;20137;-85
2022/10/05 00:18:48;;;;;;;4.82;1.60;;;;;;;;;;4976996;28;20118;-85
2022/10/05 00:21:23;;;;;;;4.10;1.52;;;;;;;;;;4978215;28;20031;-85
2022/10/05 00:23:49;;;;;;;4.97;1.65;;;;;;;;;;4977937;28;20051;-85
2022/10/05 00:26:21;;;;;;;5.03;1.50;;;;;;;;;;4978409;28;20026;-84
2022/10/05 00:28:47;;;;;;;3.47;1.70;;;;;;;;;;4977221;28;20030;-85
2022/10/05 00:31:18;;;;;;;1.65;1.38;;;;;;;;;;4976774;28;20045;-85
2022/10/05 00:33:43;;;;;;;2.30;1.23;;;;;;;;;;4976990;28;20110;-84
2022/10/05 00:36:09;;;;;;;1.73;1.40;;;;;;;;;;4976479;28;20070;-85
2022/10/05 00:38:34;;;;;;;3.20;1.50;;;;;;;;;;4976918;28;20042;-85
2022/10/05 00:41:08;;;;;;;2.30;1.50;;;;;;;;;;4976339;28;20121;-85
2022/10/05 00:44:18;;;;;;;2.17;1.50;;;;;;;;;;4976279;28;20039;-85
2022/10/05 00:47:16;;;;;;;2.85;1.50;;;;;;;;;;4940674;29;20130;-85
2022/10/05 00:49:41;;;;;;;3.95;1.42;;;;;;;;;;4936592;29;20727;-85
2022/10/05 00:52:36;;;;;;;2.30;1.42;;;;;;;;;;4963938;28;20051;-85
2022/10/05 00:55:20;;;;;;;1.98;1.50;;;;;;;;;;4976395;28;20034;-85
2022/10/05 00:58:07;;;;;;;2.95;1.50;;;;;;;;;;4977795;28;20039;-85
2022/10/05 01:00:37;;;;;;;4.30;1.50;;;;;;;;;;4976098;28;20043;-85
2022/10/05 01:03:18;;;;;;;2.20;1.35;;;;;;;;;;4977729;28;20039;-85
2022/10/05 01:06:05;;;;;;;2.10;1.30;;;;;;;;;;4976375;28;20066;-85
2022/10/05 01:09:31;;;;;;;2.80;1.48;;;;;;;;;;4977188;28;20030;-85
2022/10/05 01:12:06;;;;;;;2.17;1.30;;;;;;;;;;4901571;29;20036;-85
2022/10/05 01:14:41;;;;;;;3.88;1.67;;;;;;;;;;4917524;29;20555;-85
2022/10/05 01:17:17;;;;;;;3.17;1.67;;;;;;;;;;4944739;28;20043;-85
2022/10/05 01:20:21;;;;;;;2.10;1.23;;;;;;;;;;4975934;28;20097;-85
2022/10/05 01:22:47;;;;;;;;;;;;;;;;;;4960950;28;20054;-82
2022/10/05 01:25:18;;;;;;;3.28;1.23;;;;;;;;;;4960145;28;19917;-85
2022/10/05 01:28:22;;;;;;;2.47;1.50;;;;;;;;;;4974925;28;20035;-84
2022/10/05 01:31:10;;;;;;;2.77;1.40;;;;;;;;;;4976364;28;20054;-85
2022/10/05 01:33:56;;;;;;;2.90;1.25;;;;;;;;;;4977018;28;20050;-85
2022/10/05 01:36:29;;;;;;;1.88;1.30;;;;;;;;;;4977062;28;20042;-85
2022/10/05 01:39:13;;;;;;;2.80;1.40;;;;;;;;;;4976262;28;20035;-85
2022/10/05 01:42:20;;;;;;;2.17;1.30;;;;;;;;;;4975504;28;20495;-85
2022/10/05 01:45:01;;;;;;;2.22;1.30;;;;;;;;;;4976588;28;20582;-84
2022/10/05 01:47:41;;;;;;;1.70;1.00;;;;;;;;;;4975675;28;20536;-85
2022/10/05 01:50:10;;;;;;;2.60;1.20;;;;;;;;;;4976040;28;20452;-85
2022/10/05 01:52:44;;;;;;;2.80;1.30;;;;;;;;;;4975540;28;20027;-85
2022/10/05 01:55:24;;;;;;;;;;;;;;;;;;4977217;28;20046;-82
2022/10/05 01:58:14;;;;;;;6.20;1.40;;;;;;;;;;4976677;28;20327;-85
2022/10/05 02:01:03;;;;;;;5.30;1.25;;;;;;;;;;4974950;28;20041;-85
2022/10/05 02:03:37;;;;;;;3.05;1.17;;;;;;;;;;4940074;28;20054;-85
2022/10/05 02:06:29;;;;;;;3.20;1.40;;;;;;;;;;4959169;28;20039;-84
2022/10/05 02:09:15;;;;;;;3.45;1.40;;;;;;;;;;4974126;28;20141;-85
2022/10/05 02:11:47;;;;;;;1.85;1.30;;;;;;;;;;4975225;28;20035;-85
2022/10/05 02:14:19;;;;;;;2.35;1.13;;;;;;;;;;4975015;28;20035;-85
2022/10/05 02:16:47;;;;;;;3.67;1.10;;;;;;;;;;4975274;28;20059;-85
2022/10/05 02:19:15;;;;;;;2.63;1.20;;;;;;;;;;4975272;28;20031;-85
2022/10/05 02:21:46;;;;;;;2.28;1.23;;;;;;;;;;4958836;28;20510;-85
2022/10/05 02:24:21;;;;;;;2.47;1.40;;;;;;;;;;4974768;28;20522;-85
2022/10/05 02:26:49;;;;;;;3.83;1.27;;;;;;;;;;4974979;28;20041;-85
2022/10/05 02:29:17;;;;;;;3.13;1.30;;;;;;;;;;4974919;28;20031;-85
2022/10/05 02:31:49;;;;;;;3.95;1.40;;;;;;;;;;4975078;28;20102;-85
2022/10/05 02:34:22;;;;;;;1.83;1.20;;;;;;;;;;4975693;28;20063;-84
2022/10/05 02:37:17;;;;;;;5.93;1.30;;;;;;;;;;4975331;28;20039;-84
2022/10/05 02:40:08;;;;;;;3.25;1.30;;;;;;;;;;4941744;28;20046;-84
2022/10/05 02:42:59;;;;;;;5.45;1.50;;;;;;;;;;4958164;28;20031;-84
2022/10/05 02:46:20;;;;;;;3.60;1.17;;;;;;;;;;4974617;28;20031;-85
2022/10/05 02:49:01;;;;;;;1.77;1.20;;;;;;;;;;4954502;29;20081;-85
2022/10/05 02:52:08;;;;;;;2.85;1.02;;;;;;;;;;4938420;29;20063;-84
2022/10/05 02:55:13;;;;;;;1.60;1.30;;;;;;;;;;4953265;28;20046;-84
2022/10/05 02:57:56;;;;;;;1.60;1.00;;;;;;;;;;4974564;28;20050;-84
2022/10/05 03:00:24;;;;;;;2.78;1.00;;;;;;;;;;4958890;28;20051;-84
2022/10/05 03:05:39;;;;;;;3.22;1.30;;;;;;;;;;4948110;29;20074;-87
2022/10/05 03:08:23;;;;;;;2.58;1.20;;;;;;;;;;4934144;29;20584;-87
2022/10/05 03:11:06;;;;;;;3.50;1.20;;;;;;;;;;4934021;29;20039;-87
2022/10/05 03:13:44;;;;;;;4.88;1.20;;;;;;;;;;4917955;29;20041;-88
2022/10/05 03:16:25;;;;;;;3.75;1.10;;;;;;;;;;4918108;29;20086;-89
2022/10/05 03:18:53;;;;;;;1.20;0.90;;;;;;;;;;4918224;29;20535;-87
2022/10/05 03:21:58;;;;;;;3.97;1.20;;;;;;;;;;4934125;29;20039;-89
2022/10/05 03:24:24;;;;;;;1.48;0.95;;;;;;;;;;4919269;29;20040;-89
2022/10/05 03:27:17;;;;;;;4.75;1.30;;;;;;;;;;4934313;29;20066;-89
2022/10/05 03:30:00;;;;;;;3.33;1.30;;;;;;;;;;4942508;29;20114;-86
2022/10/05 03:32:29;;;;;;;5.15;1.20;;;;;;;;;;4934103;29;20036;-89
2022/10/05 03:35:02;;;;;;;4.90;1.20;;;;;;;;;;4933652;29;20043;-89
2022/10/05 03:37:44;;;;;;;1.92;1.20;;;;;;;;;;4933790;29;20126;-89
2022/10/05 03:40:30;;;;;;;1.80;1.23;;;;;;;;;;4934868;29;20107;-89
2022/10/05 03:43:38;;;;;;;4.05;1.20;;;;;;;;;;4935053;29;20557;-89
2022/10/05 03:46:11;;;;;;;1.73;1.20;;;;;;;;;;4914452;29;20050;-89
2022/10/05 03:49:07;;;;;;;1.52;1.10;;;;;;;;;;4918048;29;20048;-89
2022/10/05 03:51:33;;;;;;;1.63;1.00;;;;;;;;;;4921507;29;20091;-88
2022/10/05 03:54:15;;;;;;;1.40;1.10;;;;;;;;;;4921703;29;20043;-88
2022/10/05 03:56:44;;;;;;;1.35;1.00;;;;;;;;;;4921618;29;20043;-89
2022/10/05 03:59:24;;;;;;;4.10;1.15;;;;;;;;;;4921332;29;20032;-88
2022/10/05 04:01:53;;;;;;;2.75;1.30;;;;;;;;;;4937273;29;20031;-89
2022/10/05 04:04:43;;;;;;;1.77;1.20;;;;;;;;;;4936826;29;20485;-89
2022/10/05 04:07:26;;;;;;;2.42;1.17;;;;;;;;;;4921468;29;20039;-88
2022/10/05 04:09:54;;;;;;;1.60;1.20;;;;;;;;;;4921188;29;20073;-89
2022/10/05 04:12:31;;;;;;;3.88;1.25;;;;;;;;;;4921165;29;20046;-89
2022/10/05 04:15:03;;;;;;;5.82;2.20;;;;;;;;;;4937039;29;20036;-89
2022/10/05 04:17:40;;;;;;;2.70;1.50;;;;;;;;;;4937009;29;20091;-89
2022/10/05 04:20:17;;;;;;;2.45;1.25;;;;;;;;;;4936977;29;20035;-89
2022/10/05 04:22:55;;;;;;;2.53;1.60;;;;;;;;;;4918084;29;20060;-88
2022/10/05 04:25:30;;;;;;;5.88;1.90;;;;;;;;;;4917724;29;20147;-89
2022/10/05 04:28:15;;;;;;;1.80;1.30;;;;;;;;;;4918211;29;20516;-89
2022/10/05 04:30:45;;;;;;;3.67;1.33;;;;;;;;;;4902153;29;20064;-88
2022/10/05 04:33:12;;;;;;;2.92;1.38;;;;;;;;;;4902258;29;20070;-88
2022/10/05 04:35:41;;;;;;;1.92;1.30;;;;;;;;;;4917711;29;20036;-89
2022/10/05 04:38:28;;;;;;;6.43;1.60;;;;;;;;;;4917813;29;20091;-89
2022/10/05 04:41:11;;;;;;;5.50;1.80;;;;;;;;;;4902101;29;20092;-88
2022/10/05 04:43:52;;;;;;;5.07;2.50;;;;;;;;;;4901957;29;20039;-88
2022/10/05 04:46:24;;;;;;;5.95;1.73;;;;;;;;;;4918630;29;20127;-88
2022/10/05 04:49:08;;;;;;;5.63;2.95;;;;;;;;;;4917601;29;20043;-88
2022/10/05 04:51:50;;;;;;;6.55;2.70;;;;;;;;;;4917448;29;20127;-88
2022/10/05 04:54:48;;;;;;;4.57;2.22;;;;;;;;;;4917244;29;20040;-88
2022/10/05 04:57:28;;;;;;;1.75;1.30;;;;;;;;;;4917413;29;20036;-88
2022/10/05 05:00:10;;;;;;;5.00;2.17;;;;;;;;;;4917682;29;20036;-88
2022/10/05 05:03:13;;;;;;;3.10;1.52;;;;;;;;;;4901991;29;20413;-88
2022/10/05 05:05:45;;;;;;;4.15;1.50;;;;;;;;;;4901632;29;20043;-89
2022/10/05 05:08:23;;;;;;;3.28;1.40;;;;;;;;;;4917580;29;20513;-89
2022/10/05 05:11:19;;;;;;;2.58;1.30;;;;;;;;;;4917341;29;20259;-90
2022/10/05 05:13:54;;;;;;;3.17;1.40;;;;;;;;;;4901564;29;20063;-89
2022/10/05 05:16:42;;;;;;;3.60;1.25;;;;;;;;;;4901556;29;20042;-89
2022/10/05 05:19:36;;;;;;;2.22;1.13;;;;;;;;;;4902161;29;20409;-88
2022/10/05 05:22:27;;;;;;;5.15;1.50;;;;;;;;;;4917263;29;20036;-89
2022/10/05 05:25:01;;;;;;;1.60;1.20;;;;;;;;;;4916917;29;20036;-89
2022/10/05 05:27:29;;;;;;;2.57;1.10;;;;;;;;;;4917574;29;20511;-89
2022/10/05 05:30:06;;;;;;;2.15;1.20;;;;;;;;;;4917221;29;20240;-89
2022/10/05 05:32:56;;;;;;;3.22;1.80;;;;;;;;;;4917363;29;20036;-89
2022/10/05 05:35:57;;;;;;;5.30;1.95;;;;;;;;;;4901310;29;20063;-89
2022/10/05 05:38:58;;;;;;;4.32;2.10;;;;;;;;;;4901572;29;20043;-89
2022/10/05 05:41:34;;;;;;;3.53;1.30;;;;;;;;;;4901997;29;20407;-89
2022/10/05 05:44:22;;;;;;;3.67;1.38;;;;;;;;;;4908455;29;20076;-87
2022/10/05 05:47:00;;;;;;;2.22;1.20;;;;;;;;;;4970128;28;20127;-87
2022/10/05 05:49:30;;;;;;;3.63;1.75;;;;;;;;;;4927969;29;20020;-90
2022/10/05 05:52:10;;;;;;;1.77;1.00;;;;;;;;;;4905122;29;20095;-89
2022/10/05 05:54:53;;;;;;;3.95;1.20;;;;;;;;;;4916456;29;20043;-88
2022/10/05 05:57:24;;;;;;;1.80;1.27;;;;;;;;;;4916583;29;20091;-89
2022/10/05 06:00:21;;;;;;;4.75;1.35;;;;;;;;;;4916623;29;20036;-87
2022/10/05 06:03:23;;;;;;;1.92;1.20;;;;;;;;;;4895221;29;20567;-89
2022/10/05 06:06:08;;;;;;;1.55;1.20;;;;;;;;;;4900412;29;20122;-88
2022/10/05 06:08:46;;;;;;;4.43;1.23;;;;;;;;;;4916446;29;20032;-89
2022/10/05 06:11:59;;;;;;;2.67;1.20;;;;;;;;;;4917034;29;20048;-88
2022/10/05 06:14:35;;;;;;;2.58;1.10;;;;;;;;;;4900011;29;20036;-89
2022/10/05 06:17:10;;;;;;;4.35;1.10;;;;;;;;;;4916124;29;20405;-88
2022/10/05 06:19:38;;;;;;;3.38;1.13;;;;;;;;;;4900902;29;20671;-88
2022/10/05 06:22:16;;;;;;;4.93;1.02;;;;;;;;;;4900474;29;20469;-87
2022/10/05 06:24:53;;;;;;;2.45;0.80;;;;;;;;;;4916701;29;20040;-88
2022/10/05 06:27:25;;;;;;;1.67;1.10;;;;;;;;;;4915909;29;20119;-91
2022/10/05 06:30:02;;;;;;;1.13;0.90;;;;;;;;;;4900339;29;20055;-89
2022/10/05 06:32:34;;;;;;;2.30;0.95;;;;;;;;;;4915870;29;20050;-88
2022/10/05 06:35:18;;;;;;;3.63;0.95;;;;;;;;;;4899742;29;20059;-89
2022/10/05 06:37:59;;;;;;;1.75;1.17;;;;;;;;;;4915616;29;20060;-90
2022/10/05 06:40:34;;;;;;;1.45;1.00;;;;;;;;;;4915934;29;20560;-89
2022/10/05 06:43:50;;;;;;;3.05;1.00;;;;;;;;;;4915798;29;20103;-85
2022/10/05 06:47:26;;;;;;;4.90;1.30;;;;;;;;;;4876882;29;20036;-90
2022/10/05 06:50:39;;;;;;;3.40;0.90;;;;;;;;;;4901005;29;20132;-89
2022/10/05 06:53:51;;;;;;;4.30;1.20;;;;;;;;;;4912787;29;20039;-86
2022/10/05 06:56:35;;;;;;;1.98;1.00;;;;;;;;;;4933567;29;20039;-88
2022/10/05 06:59:06;;;;;;;1.20;0.80;;;;;;;;;;4951369;29;20040;-88
2022/10/05 07:01:46;;;;;;;1.00;0.90;;;;;;;;;;4935572;29;20397;-89
2022/10/05 07:04:21;;;;;;;1.67;1.00;;;;;;;;;;4950239;28;20043;-89
2022/10/05 07:06:46;;;;;;;1.10;1.00;;;;;;;;;;4934747;29;20042;-87
2022/10/05 07:09:30;;;;;;;3.22;1.00;;;;;;;;;;4936704;29;20031;-88
2022/10/05 07:12:33;;;;;;;4.95;0.90;;;;;;;;;;4920752;29;20485;-88
2022/10/05 07:15:18;;;;;;;1.23;0.93;;;;;;;;;;4919100;29;20036;-88
2022/10/05 07:18:21;;;;;;;3.58;1.10;;;;;;;;;;4934396;29;20043;-89
2022/10/05 07:20:53;;;;;;;2.65;0.90;;;;;;;;;;4934184;29;20031;-88
2022/10/05 07:23:31;;;;;;;4.20;0.95;;;;;;;;;;4934003;29;20032;-88
2022/10/05 07:26:06;;;;;;;1.48;0.90;;;;;;;;;;4952689;29;20035;-88
2022/10/05 07:29:06;;;;;;;0.98;0.85;;;;;;;;;;4938057;29;20039;-88
2022/10/05 07:31:45;;;;;;;1.30;1.02;;;;;;;;;;4922293;29;20038;-88
2022/10/05 07:34:50;;;;;;;3.17;1.02;;;;;;;;;;4938393;29;20114;-89
2022/10/05 07:37:53;;;;;;;1.25;0.90;;;;;;;;;;4921823;29;20032;-89
2022/10/05 07:40:38;;;;;;;4.03;0.98;;;;;;;;;;4922082;29;20114;-90
2022/10/05 07:43:36;;;;;;;0.75;0.75;;;;;;;;;;4922070;29;20031;-87
2022/10/05 07:46:08;;;;;;;1.23;0.85;;;;;;;;;;4953454;29;20063;-90
2022/10/05 07:49:05;;;;;;;2.35;1.10;;;;;;;;;;4921876;29;20035;-90
2022/10/05 07:51:39;;;;;;;2.00;1.10;;;;;;;;;;4953329;29;20074;-89
2022/10/05 07:54:08;;;;;;;2.40;1.10;;;;;;;;;;4937228;29;20027;-90
2022/10/05 07:56:42;;;;;;;2.22;1.25;;;;;;;;;;4922184;29;20032;-90
2022/10/05 07:59:23;;;;;;;2.10;1.05;;;;;;;;;;4938307;29;20460;-90
2022/10/05 08:01:58;;;;;;;1.27;0.90;;;;;;;;;;4954292;29;20034;-89
2022/10/05 08:04:29;;;;;;;1.10;0.98;;;;;;;;;;4937857;29;20046;-89
2022/10/05 08:07:08;;;;;;;2.47;1.00;;;;;;;;;;4957062;29;20047;-91
2022/10/05 08:09:55;;;;;;;2.05;1.10;;;;;;;;;;4942299;29;20071;-89
2022/10/05 08:12:30;;;;;;;1.92;0.85;;;;;;;;;;4953317;29;20047;-90
2022/10/05 08:15:13;;;;;;;1.23;1.00;;;;;;;;;;4921556;29;20035;-90
2022/10/05 08:17:44;;;;;;;1.35;0.98;;;;;;;;;;4938769;29;20091;-90
2022/10/05 08:20:19;;;;;;;2.78;0.93;;;;;;;;;;4938051;29;20036;-90
2022/10/05 08:22:50;;;;;;;4.03;1.08;;;;;;;;;;4938922;29;20031;-90
2022/10/05 08:25:25;;;;;;;3.95;1.00;;;;;;;;;;4953240;29;20046;-90
2022/10/05 08:28:18;;;;;;;2.08;1.10;;;;;;;;;;4953388;29;20126;-90
2022/10/05 08:31:07;;;;;;;1.13;0.90;;;;;;;;;;4938790;29;20118;-91
2022/10/05 08:33:44;;;;;;;1.45;1.00;;;;;;;;;;4918609;29;20445;-90
2022/10/05 08:36:13;;;;;;;2.42;1.10;;;;;;;;;;4936915;29;20040;-90
2022/10/05 08:38:39;;;;;;;1.33;1.00;;;;;;;;;;4938798;29;20103;-90
2022/10/05 08:41:04;;;;;;;2.63;0.88;;;;;;;;;;4952952;29;20016;-90
2022/10/05 08:44:21;;;;;;;6.50;1.25;;;;;;;;;;4936923;29;20386;-90
2022/10/05 08:47:11;;;;;;;2.38;0.85;;;;;;;;;;4921361;29;20052;-88
2022/10/05 08:49:55;;;;;;;1.33;0.95;;;;;;;;;;4938738;29;20042;-89
2022/10/05 08:52:27;;;;;;;1.52;0.90;;;;;;;;;;4936616;29;20047;-90
2022/10/05 08:55:08;;;;;;;1.70;0.90;;;;;;;;;;4936444;29;20043;-90
2022/10/05 08:58:06;;;;;;;1.08;0.90;;;;;;;;;;4936573;29;20043;-90
2022/10/05 09:00:44;;;;;;;1.92;1.00;;;;;;;;;;4952471;29;20035;-90
2022/10/05 09:05:57;;;;;;;2.97;1.08;;;;;;;;;;4914893;29;20052;-89
2022/10/05 09:08:50;;;;;;;2.97;0.98;;;;;;;;;;4933312;29;20067;-89
2022/10/05 09:11:49;;;;;;;1.47;0.97;;;;;;;;;;4917990;29;20417;-91
2022/10/05 09:14:27;;;;;;;2.72;0.90;;;;;;;;;;4919381;29;20040;-90
2022/10/05 09:16:58;;;;;;;1.92;0.90;;;;;;;;;;4918076;29;20512;-90
2022/10/05 09:20:01;;;;;;;2.40;0.90;;;;;;;;;;4918215;29;20036;-89
2022/10/05 09:22:37;;;;;;;1.38;0.80;;;;;;;;;;4917701;29;20036;-89
2022/10/05 09:25:20;;;;;;;2.33;1.00;;;;;;;;;;4917812;29;20068;-89
2022/10/05 09:27:57;;;;;;;2.70;0.82;;;;;;;;;;4917588;29;20174;-89
2022/10/05 09:30:23;;;;;;;1.38;0.88;;;;;;;;;;4918123;29;20044;-89
2022/10/05 09:33:03;;;;;;;1.73;1.20;;;;;;;;;;4919103;29;20034;-90
2022/10/05 09:35:38;;;;;;;1.10;0.80;;;;;;;;;;4917383;29;20055;-89
2022/10/05 09:38:16;;;;;;;1.13;1.00;;;;;;;;;;4917520;29;20040;-89
2022/10/05 09:41:00;;;;;;;2.45;1.05;;;;;;;;;;4883078;29;20548;-89
2022/10/05 09:43:55;;;;;;;1.15;0.90;;;;;;;;;;4899634;29;20481;-89
2022/10/05 09:46:36;;;;;;;5.13;0.90;;;;;;;;;;4898548;29;20096;-91
2022/10/05 09:49:28;;;;;;;3.35;1.00;;;;;;;;;;4897644;29;20401;-90
2022/10/05 09:52:07;;;;;;;1.27;0.80;;;;;;;;;;4876987;29;20036;-90
2022/10/05 09:54:55;;;;;;;1.75;0.80;;;;;;;;;;4906453;29;20147;-90
2022/10/05 09:57:37;;;;;;;1.08;0.73;;;;;;;;;;4918645;29;20036;-90
2022/10/05 10:00:14;;;;;;;3.00;1.00;;;;;;;;;;4918295;29;20037;-90
2022/10/05 10:03:04;;;;;;;0.95;0.60;;;;;;;;;;4918082;29;20032;-90
2022/10/05 10:05:32;;;;;;;1.10;0.75;;;;;;;;;;4917589;29;20042;-88
2022/10/05 10:08:24;;;;;;;1.23;0.70;;;;;;;;;;4918296;29;20035;-89
2022/10/05 10:11:18;;;;;;;4.93;0.77;;;;;;;;;;4919015;29;20066;-88
2022/10/05 10:13:59;;;;;;;3.45;0.90;;;;;;;;;;4911443;29;20497;-89
2022/10/05 10:16:34;;;;;;;1.90;0.95;;;;;;;;;;4917621;29;20413;-90
2022/10/05 10:19:47;;;;;;;3.35;0.80;;;;;;;;;;4900435;29;20058;-89
2022/10/05 10:22:35;;;;;;;1.75;0.80;;;;;;;;;;4922118;29;20052;-88
2022/10/05 10:25:19;;;;;;;3.05;0.75;;;;;;;;;;4887825;29;20401;-88
2022/10/05 10:28:04;;;;;;;1.58;0.70;;;;;;;;;;4917101;29;20088;-88
2022/10/05 10:30:38;;;;;;;0.80;0.80;;;;;;;;;;4919481;29;20040;-88
2022/10/05 10:33:12;;;;;;;1.98;0.80;;;;;;;;;;4920950;29;20106;-88
2022/10/05 10:35:49;;;;;;;;;;;;;;;;;;4921251;29;20054;-88
2022/10/05 10:38:33;;;;;;;2.45;0.88;;;;;;;;;;4920876;29;19915;-88
2022/10/05 10:41:10;;;;;;;4.35;0.90;;;;;;;;;;4919657;29;20055;-87
2022/10/05 10:43:42;;;;;;;3.17;0.80;;;;;;;;;;4921264;29;20043;-88
2022/10/05 10:46:45;;;;;;;2.15;0.80;;;;;;;;;;4919001;29;20134;-89
2022/10/05 10:49:15;;;;;;;4.13;0.80;;;;;;;;;;4918064;29;20489;-88
2022/10/05 10:51:43;;;;;;;5.05;0.85;;;;;;;;;;4918404;29;20040;-88
2022/10/05 10:54:36;;;;;;;2.65;0.70;;;;;;;;;;4918022;29;20020;-88
2022/10/05 10:57:09;;;;;;;5.30;0.82;;;;;;;;;;4911857;29;20060;-88
2022/10/05 10:59:41;;;;;;;;;;;;;;;;;;4918650;29;20106;-89
2022/10/05 11:02:09;;;;;;;1.10;0.80;;;;;;;;;;4918285;29;19938;-88
2022/10/05 11:04:56;;;;;;;1.55;0.75;;;;;;;;;;4902657;29;20032;-87
2022/10/05 11:07:46;;;;;;;0.90;0.68;;;;;;;;;;4920165;29;20086;-87
2022/10/05 11:10:24;;;;;;;3.45;0.85;;;;;;;;;;4917142;29;20036;-88
2022/10/05 11:13:20;;;;;;;1.75;1.00;;;;;;;;;;4916157;29;20446;-88
2022/10/05 11:15:59;;;;;;;0.90;0.70;;;;;;;;;;4905849;29;20071;-88
2022/10/05 11:18:40;;;;;;;1.25;0.60;;;;;;;;;;4916412;29;20083;-88
2022/10/05 11:21:35;;;;;;;1.27;0.70;;;;;;;;;;4917072;29;20449;-88
2022/10/05 11:24:17;;;;;;;0.75;0.70;;;;;;;;;;4916835;29;20032;-88
2022/10/05 11:26:54;;;;;;;1.40;0.75;;;;;;;;;;4916863;29;20501;-88
2022/10/05 11:30:00;;;;;;;1.73;0.80;;;;;;;;;;4917005;29;20042;-88
2022/10/05 11:32:55;;;;;;;1.80;0.80;;;;;;;;;;4916850;29;20036;-88
2022/10/05 11:35:29;;;;;;;2.55;1.00;;;;;;;;;;4888558;29;20048;-88
2022/10/05 11:38:08;;;;;;;0.80;0.70;;;;;;;;;;4916566;29;20040;-88
2022/10/05 11:40:58;;;;;;;2.35;0.80;;;;;;;;;;4915620;29;20036;-88
2022/10/05 11:43:49;;;;;;;2.00;0.90;;;;;;;;;;4915737;29;20040;-88
2022/10/05 11:46:15;;;;;;;1.85;0.70;;;;;;;;;;4916978;29;20032;-88
2022/10/05 11:49:01;;;;;;;0.95;0.70;;;;;;;;;;4916896;29;20095;-88
2022/10/05 11:51:58;;;;;;;1.67;0.60;;;;;;;;;;4918687;29;20036;-88
2022/10/05 11:54:33;;;;;;;0.82;0.60;;;;;;;;;;4916683;29;20054;-86
2022/10/05 11:57:07;;;;;;;2.97;0.70;;;;;;;;;;4914909;29;20055;-88
2022/10/05 11:59:48;;;;;;;1.02;0.90;;;;;;;;;;4915818;29;20481;-88
2022/10/05 12:02:19;;;;;;;1.27;1.00;;;;;;;;;;4916188;29;20028;-88
2022/10/05 12:04:48;;;;;;;1.35;0.80;;;;;;;;;;4914724;29;20044;-88
2022/10/05 12:07:33;;;;;;;1.98;0.70;;;;;;;;;;4916377;29;20430;-88
2022/10/05 12:10:37;;;;;;;0.85;0.80;;;;;;;;;;4915266;29;20044;-88
2022/10/05 12:13:18;;;;;;;0.70;0.70;;;;;;;;;;4844351;29;20156;-88
2022/10/05 12:15:43;;;;;;;0.98;0.80;;;;;;;;;;4912107;29;20051;-89
2022/10/05 12:18:30;;;;;;;0.85;0.80;;;;;;;;;;4920143;29;20031;-88
2022/10/05 12:21:09;;;;;;;0.80;0.70;;;;;;;;;;4919045;29;20044;-88
2022/10/05 12:23:53;;;;;;;1.63;0.80;;;;;;;;;;4919899;29;20048;-89
2022/10/05 12:26:30;;;;;;;2.40;0.90;;;;;;;;;;4920144;29;20118;-88
2022/10/05 12:29:27;;;;;;;1.20;0.90;;;;;;;;;;4918672;29;20636;-88
2022/10/05 12:32:11;;;;;;;0.90;0.80;;;;;;;;;;4919066;29;20052;-88
2022/10/05 12:34:55;;;;;;;3.28;0.70;;;;;;;;;;4920852;29;20055;-88
2022/10/05 12:37:30;;;;;;;1.70;1.08;;;;;;;;;;4918491;29;20040;-88
2022/10/05 12:40:07;;;;;;;2.05;1.10;;;;;;;;;;4918530;29;20495;-88
2022/10/05 12:42:35;;;;;;;1.67;0.98;;;;;;;;;;4919645;29;20044;-88
2022/10/05 12:45:16;;;;;;;3.25;1.00;;;;;;;;;;4918670;29;20111;-88
2022/10/05 12:48:15;;;;;;;1.33;1.00;;;;;;;;;;4922368;29;20035;-88
2022/10/05 12:50:45;;;;;;;2.63;1.00;;;;;;;;;;4924563;29;20044;-88
2022/10/05 12:53:49;;;;;;;3.25;0.90;;;;;;;;;;4919763;29;20478;-87
2022/10/05 12:56:56;;;;;;;2.80;1.40;;;;;;;;;;4839889;29;20034;-88
2022/10/05 12:59:35;;;;;;;1.58;0.95;;;;;;;;;;4819629;29;20101;-88
2022/10/05 13:02:01;;;;;;;2.08;0.95;;;;;;;;;;4905587;29;20051;-87
2022/10/05 13:04:42;;;;;;;1.00;0.75;;;;;;;;;;4921257;29;20036;-89
2022/10/05 13:07:26;;;;;;;2.42;1.30;;;;;;;;;;4920482;29;20032;-88
2022/10/05 13:10:00;;;;;;;3.00;1.10;;;;;;;;;;4920423;29;20039;-88
2022/10/05 13:12:36;;;;;;;1.70;0.90;;;;;;;;;;4919116;29;20036;-88
2022/10/05 13:15:22;;;;;;;5.20;1.00;;;;;;;;;;4920754;29;20172;-87
2022/10/05 13:18:11;;;;;;;4.35;0.88;;;;;;;;;;4919035;29;20152;-88
2022/10/05 13:20:54;;;;;;;3.53;0.80;;;;;;;;;;4884914;29;20048;-88
2022/10/05 13:23:33;;;;;;;1.25;0.80;;;;;;;;;;4920453;29;20095;-88
2022/10/05 13:26:01;;;;;;;0.98;0.88;;;;;;;;;;4920239;29;20044;-88
2022/10/05 13:28:40;;;;;;;2.50;0.90;;;;;;;;;;4920344;29;20032;-88
2022/10/05 13:31:21;;;;;;;2.38;0.85;;;;;;;;;;4920959;29;20043;-88
2022/10/05 13:34:17;;;;;;;2.25;0.65;;;;;;;;;;4903662;29;20075;-88
2022/10/05 13:36:47;;;;;;;1.05;0.70;;;;;;;;;;4887231;29;20627;-88
2022/10/05 13:39:34;;;;;;;1.38;0.80;;;;;;;;;;4920278;29;20533;-89
2022/10/05 13:42:02;;;;;;;1.23;0.70;;;;;;;;;;4919986;29;20036;-88
2022/10/05 13:45:15;;;;;;;5.45;0.80;;;;;;;;;;4919530;29;20067;-88
2022/10/05 13:47:51;;;;;;;2.08;0.80;;;;;;;;;;4892273;29;20086;-88
2022/10/05 13:50:22;;;;;;;2.33;0.98;;;;;;;;;;4919729;29;20032;-88
2022/10/05 13:52:58;;;;;;;3.28;1.40;;;;;;;;;;4918057;29;20413;-88
2022/10/05 13:55:48;;;;;;;2.17;0.82;;;;;;;;;;4918334;29;20115;-89
2022/10/05 13:58:32;;;;;;;0.60;0.50;;;;;;;;;;4918743;29;20482;-89
2022/10/05 14:01:07;;;;;;;2.00;0.70;;;;;;;;;;4917593;29;20040;-90
2022/10/05 14:03:35;;;;;;;0.80;0.65;;;;;;;;;;4917358;29;20040;-89
2022/10/05 14:06:10;;;;;;;2.67;0.70;;;;;;;;;;4918611;29;20036;-88
2022/10/05 14:08:51;;;;;;;0.60;0.60;;;;;;;;;;4918504;29;20050;-89
2022/10/05 14:11:30;;;;;;;1.42;0.70;;;;;;;;;;4914959;29;20069;-90
2022/10/05 14:14:09;;;;;;;1.33;0.70;;;;;;;;;;4899363;29;20039;-89
2022/10/05 14:16:47;;;;;;;1.50;0.68;;;;;;;;;;4899695;29;20498;-89
2022/10/05 14:19:55;;;;;;;0.77;0.60;;;;;;;;;;4899603;29;20510;-89
2022/10/05 14:22:23;;;;;;;1.45;0.80;;;;;;;;;;4826186;29;20038;-89
2022/10/05 14:25:09;;;;;;;1.75;0.77;;;;;;;;;;4840766;29;20042;-89
2022/10/05 14:27:54;;;;;;;1.85;0.85;;;;;;;;;;4864753;29;20475;-88
2022/10/05 14:30:22;;;;;;;2.63;0.82;;;;;;;;;;4897631;29;20498;-89
2022/10/05 14:32:54;;;;;;;2.63;0.80;;;;;;;;;;4898503;29;20044;-90
2022/10/05 14:35:24;;;;;;;4.38;0.90;;;;;;;;;;4897681;29;20045;-89
2022/10/05 14:38:15;;;;;;;3.60;1.00;;;;;;;;;;4898400;29;20040;-89
2022/10/05 14:40:41;;;;;;;2.65;0.80;;;;;;;;;;4893601;29;20100;-89
2022/10/05 14:43:24;;;;;;;1.73;1.00;;;;;;;;;;4898158;29;20032;-89
2022/10/05 14:46:15;;;;;;;0.77;0.63;;;;;;;;;;4898236;29;20041;-89
2022/10/05 14:48:42;;;;;;;3.63;0.70;;;;;;;;;;4901602;29;20116;-90
2022/10/05 14:51:10;;;;;;;1.15;0.70;;;;;;;;;;4898217;29;20487;-89
2022/10/05 14:53:42;;;;;;;0.88;0.75;;;;;;;;;;4897778;29;20644;-89
2022/10/05 14:56:22;;;;;;;1.83;0.80;;;;;;;;;;4903173;29;20032;-88
2022/10/05 14:59:22;;;;;;;1.52;0.73;;;;;;;;;;4917110;29;20454;-88
2022/10/05 15:02:11;;;;;;;0.70;0.60;;;;;;;;;;4916030;29;20500;-88
2022/10/05 15:04:55;;;;;;;1.50;0.63;;;;;;;;;;4917258;29;20048;-88
2022/10/05 15:07:22;;;;;;;;;;;;;;;;;;4916488;29;20504;-89
2022/10/05 15:10:00;;;;;;;1.85;0.85;;;;;;;;;;4917357;29;19922;-88
2022/10/05 15:12:39;;;;;;;1.50;0.90;;;;;;;;;;4917129;29;20036;-88
2022/10/05 15:15:38;;;;;;;2.75;0.70;;;;;;;;;;4917476;29;20382;-88
2022/10/05 15:18:14;;;;;;;3.92;0.90;;;;;;;;;;4916576;29;20063;-88
2022/10/05 15:20:55;;;;;;;5.80;1.40;;;;;;;;;;4917521;29;20040;-89
2022/10/05 15:23:48;;;;;;;2.65;1.67;;;;;;;;;;4917519;29;20417;-89
2022/10/05 15:26:16;;;;;;;5.75;1.10;;;;;;;;;;4917194;29;20051;-88
2022/10/05 15:28:53;;;;;;;3.58;0.93;;;;;;;;;;4917142;29;20032;-88
2022/10/05 15:31:30;;;;;;;2.70;0.82;;;;;;;;;;4899336;29;20068;-89
2022/10/05 15:34:03;;;;;;;1.95;1.00;;;;;;;;;;4898125;29;20045;-88
2022/10/05 15:36:50;;;;;;;1.48;0.90;;;;;;;;;;4898409;29;20128;-89
2022/10/05 15:39:34;;;;;;;2.80;0.90;;;;;;;;;;4896948;29;20545;-91
2022/10/05 15:42:05;;;;;;;;;;;;;;;;;;4896489;29;20043;-91
2022/10/05 15:45:09;;;;;;;2.50;1.95;;;;;;;;;;4895976;29;19915;-90
2022/10/05 15:47:38;;;;;;;4.03;2.05;;;;;;;;;;4900931;29;20139;-89
2022/10/05 15:50:31;;;;;;;1.48;1.02;;;;;;;;;;4902146;29;20045;-88
2022/10/05 15:53:15;;;;;;;1.65;0.90;;;;;;;;;;4900926;29;20123;-88
2022/10/05 15:55:57;;;;;;;3.58;0.90;;;;;;;;;;4902227;29;20040;-88
2022/10/05 15:58:50;;;;;;;1.98;0.90;;;;;;;;;;4901590;29;20036;-88
2022/10/05 16:01:20;;;;;;;3.58;1.10;;;;;;;;;;4900467;29;20409;-89
2022/10/05 16:03:49;;;;;;;5.90;1.10;;;;;;;;;;4900145;29;20036;-88
2022/10/05 16:10:09;;;;;;;1.83;1.30;;;;;;;;;;4899671;29;20060;-88
2022/10/05 16:13:04;;;;;;;4.65;1.10;;;;;;;;;;4900914;29;20054;-90
2022/10/05 16:15:41;;;;;;;2.55;0.95;;;;;;;;;;4887993;29;20414;-90
2022/10/05 16:18:22;;;;;;;4.57;1.20;;;;;;;;;;4900879;29;20528;-90
2022/10/05 16:21:16;;;;;;;5.28;1.20;;;;;;;;;;4900929;29;20398;-89